sensor_id;sensor_type;location;lat;lon;timestamp;pressure;altitude;pressure_sealevel;temperature;humidity
84413;BME280;74611;53.106;8.778;2024-01-06T00:00:02;100463.47;;;1.51;92.88
84413;BME280;74611;53.106;8.778;2024-01-06T00:02:28;100470.72;;;1.59;92.78
84413;BME280;74611;53.106;8.778;2024-01-06T00:04:53;100468.09;;;1.68;93.15
84413;BME280;74611;53.106;8.778;2024-01-06T00:07:19;100471.94;;;1.54;92.76
84413;BME280;74611;53.106;8.778;2024-01-06T00:09:44;100481.56;;;1.56;93.08
84413;BME280;74611;53.106;8.778;2024-01-06T00:12:10;100469.75;;;1.50;93.41
84413;BME280;74611;53.106;8.778;2024-01-06T00:14:36;100476.84;;;1.49;93.15
84413;BME280;74611;53.106;8.778;2024-01-06T00:17:01;100473.50;;;1.47;92.88
84413;BME280;74611;53.106;8.778;2024-01-06T00:19:27;100474.03;;;1.51;93.27
84413;BME280;74611;53.106;8.778;2024-01-06T00:21:55;100480.75;;;1.65;92.95
84413;BME280;74611;53.106;8.778;2024-01-06T00:24:21;100483.94;;;1.59;92.72
84413;BME280;74611;53.106;8.778;2024-01-06T00:26:51;100482.81;;;1.51;93.66
84413;BME280;74611;53.106;8.778;2024-01-06T00:29:17;100487.09;;;1.43;92.67
84413;BME280;74611;53.106;8.778;2024-01-06T00:31:42;100495.44;;;1.48;92.76
84413;BME280;74611;53.106;8.778;2024-01-06T00:34:08;100489.84;;;1.41;93.48
84413;BME280;74611;53.106;8.778;2024-01-06T00:36:36;100499.59;;;1.41;93.56
84413;BME280;74611;53.106;8.778;2024-01-06T00:39:05;100501.75;;;1.57;92.88
84413;BME280;74611;53.106;8.778;2024-01-06T00:41:30;100505.88;;;1.59;93.72
84413;BME280;74611;53.106;8.778;2024-01-06T00:44:12;100499.91;;;1.57;92.62
84413;BME280;74611;53.106;8.778;2024-01-06T00:46:44;100498.91;;;1.48;92.69
84413;BME280;74611;53.106;8.778;2024-01-06T00:49:10;100505.75;;;1.51;93.46
84413;BME280;74611;53.106;8.778;2024-01-06T00:51:36;100511.06;;;1.61;92.72
84413;BME280;74611;53.106;8.778;2024-01-06T00:54:01;100515.34;;;1.52;92.91
84413;BME280;74611;53.106;8.778;2024-01-06T00:56:27;100514.75;;;1.39;93.10
84413;BME280;74611;53.106;8.778;2024-01-06T00:58:52;100517.41;;;1.48;92.63
84413;BME280;74611;53.106;8.778;2024-01-06T01:01:18;100517.16;;;1.51;92.66
84413;BME280;74611;53.106;8.778;2024-01-06T01:03:47;100522.53;;;1.40;92.96
84413;BME280;74611;53.106;8.778;2024-01-06T01:06:25;100522.53;;;1.40;92.59
84413;BME280;74611;53.106;8.778;2024-01-06T01:08:57;100526.31;;;1.47;92.82
84413;BME280;74611;53.106;8.778;2024-01-06T01:11:22;100527.56;;;1.43;92.88
84413;BME280;74611;53.106;8.778;2024-01-06T01:13:51;100525.00;;;1.32;92.94
84413;BME280;74611;53.106;8.778;2024-01-06T01:16:17;100531.00;;;1.44;93.08
84413;BME280;74611;53.106;8.778;2024-01-06T01:18:45;100532.25;;;1.40;92.96
84413;BME280;74611;53.106;8.778;2024-01-06T01:21:11;100532.94;;;1.32;92.83
84413;BME280;74611;53.106;8.778;2024-01-06T01:23:37;100533.09;;;1.40;93.48
84413;BME280;74611;53.106;8.778;2024-01-06T01:26:02;100535.88;;;1.39;92.83
84413;BME280;74611;53.106;8.778;2024-01-06T01:28:28;100545.16;;;1.33;92.10
84413;BME280;74611;53.106;8.778;2024-01-06T01:31:03;100541.72;;;1.42;92.40
84413;BME280;74611;53.106;8.778;2024-01-06T01:33:29;100542.88;;;1.49;92.72
84413;BME280;74611;53.106;8.778;2024-01-06T01:35:54;100552.28;;;1.42;93.18
84413;BME280;74611;53.106;8.778;2024-01-06T01:38:20;100554.56;;;1.26;92.90
84413;BME280;74611;53.106;8.778;2024-01-06T01:40:45;100557.66;;;1.31;93.14
84413;BME280;74611;53.106;8.778;2024-01-06T01:43:20;100558.91;;;1.27;93.26
84413;BME280;74611;53.106;8.778;2024-01-06T01:45:55;100562.47;;;1.17;92.75
84413;BME280;74611;53.106;8.778;2024-01-06T01:48:22;100573.66;;;1.30;92.78
84413;BME280;74611;53.106;8.778;2024-01-06T01:50:49;100578.66;;;1.33;92.70
84413;BME280;74611;53.106;8.778;2024-01-06T01:53:15;100575.31;;;1.31;93.05
84413;BME280;74611;53.106;8.778;2024-01-06T01:55:42;100587.69;;;1.30;92.85
84413;BME280;74611;53.106;8.778;2024-01-06T01:58:09;100589.34;;;1.31;92.71
84413;BME280;74611;53.106;8.778;2024-01-06T02:00:36;100582.22;;;1.22;92.53
84413;BME280;74611;53.106;8.778;2024-01-06T02:03:03;100589.66;;;1.38;92.84
84413;BME280;74611;53.106;8.778;2024-01-06T02:05:29;100593.94;;;1.29;92.61
84413;BME280;74611;53.106;8.778;2024-01-06T02:07:55;100591.38;;;1.18;92.04
84413;BME280;74611;53.106;8.778;2024-01-06T02:10:21;100593.41;;;1.35;93.63
84413;BME280;74611;53.106;8.778;2024-01-06T02:12:48;100599.38;;;1.37;92.41
84413;BME280;74611;53.106;8.778;2024-01-06T02:15:13;100597.97;;;1.33;92.91
84413;BME280;74611;53.106;8.778;2024-01-06T02:17:39;100593.94;;;1.29;92.92
84413;BME280;74611;53.106;8.778;2024-01-06T02:20:07;100597.41;;;1.30;92.92
84413;BME280;74611;53.106;8.778;2024-01-06T02:22:35;100606.22;;;1.40;93.11
84413;BME280;74611;53.106;8.778;2024-01-06T02:25:01;100605.59;;;1.27;92.48
84413;BME280;74611;53.106;8.778;2024-01-06T02:27:27;100611.25;;;1.22;92.73
84413;BME280;74611;53.106;8.778;2024-01-06T02:29:52;100609.28;;;1.15;92.46
84413;BME280;74611;53.106;8.778;2024-01-06T02:32:18;100610.00;;;1.17;92.36
84413;BME280;74611;53.106;8.778;2024-01-06T02:34:44;100610.94;;;1.16;92.76
84413;BME280;74611;53.106;8.778;2024-01-06T02:37:09;100615.19;;;1.28;92.60
84413;BME280;74611;53.106;8.778;2024-01-06T02:39:35;100624.06;;;1.27;92.64
84413;BME280;74611;53.106;8.778;2024-01-06T02:42:00;100624.53;;;1.32;92.59
84413;BME280;74611;53.106;8.778;2024-01-06T02:44:26;100626.31;;;1.31;92.58
84413;BME280;74611;53.106;8.778;2024-01-06T02:46:51;100627.41;;;1.29;92.40
84413;BME280;74611;53.106;8.778;2024-01-06T02:49:17;100634.69;;;1.16;91.93
84413;BME280;74611;53.106;8.778;2024-01-06T02:51:42;100637.28;;;1.27;92.75
84413;BME280;74611;53.106;8.778;2024-01-06T02:54:08;100632.31;;;1.33;92.96
84413;BME280;74611;53.106;8.778;2024-01-06T02:56:34;100642.94;;;1.22;92.66
84413;BME280;74611;53.106;8.778;2024-01-06T02:58:59;100647.06;;;1.15;92.13
84413;BME280;74611;53.106;8.778;2024-01-06T03:01:46;100653.66;;;1.21;93.06
84413;BME280;74611;53.106;8.778;2024-01-06T03:04:23;100650.13;;;1.11;92.02
84413;BME280;74611;53.106;8.778;2024-01-06T03:06:52;100651.31;;;1.27;92.89
84413;BME280;74611;53.106;8.778;2024-01-06T03:09:22;100649.28;;;1.10;92.10
84413;BME280;74611;53.106;8.778;2024-01-06T03:11:47;100648.09;;;1.03;93.01
84413;BME280;74611;53.106;8.778;2024-01-06T03:14:35;100650.16;;;1.20;93.03
84413;BME280;74611;53.106;8.778;2024-01-06T03:17:14;100652.53;;;1.03;92.04
84413;BME280;74611;53.106;8.778;2024-01-06T03:19:40;100651.78;;;0.91;91.80
84413;BME280;74611;53.106;8.778;2024-01-06T03:22:06;100657.72;;;1.04;93.21
84413;BME280;74611;53.106;8.778;2024-01-06T03:24:31;100670.06;;;1.04;92.84
84413;BME280;74611;53.106;8.778;2024-01-06T03:26:57;100667.09;;;0.97;92.65
84413;BME280;74611;53.106;8.778;2024-01-06T03:29:23;100665.03;;;1.01;92.63
84413;BME280;74611;53.106;8.778;2024-01-06T03:31:49;100679.97;;;0.91;92.14
84413;BME280;74611;53.106;8.778;2024-01-06T03:34:14;100673.78;;;1.01;93.45
84413;BME280;74611;53.106;8.778;2024-01-06T03:36:40;100672.25;;;0.99;92.71
84413;BME280;74611;53.106;8.778;2024-01-06T03:39:07;100671.72;;;1.05;92.84
84413;BME280;74611;53.106;8.778;2024-01-06T03:41:32;100680.28;;;0.97;92.86
84413;BME280;74611;53.106;8.778;2024-01-06T03:43:58;100688.28;;;1.07;92.64
84413;BME280;74611;53.106;8.778;2024-01-06T03:46:26;100697.16;;;1.06;92.32
84413;BME280;74611;53.106;8.778;2024-01-06T03:48:52;100692.78;;;0.95;92.34
84413;BME280;74611;53.106;8.778;2024-01-06T03:51:18;100694.06;;;1.01;92.27
84413;BME280;74611;53.106;8.778;2024-01-06T03:53:44;100699.47;;;0.99;92.25
84413;BME280;74611;53.106;8.778;2024-01-06T03:56:09;100704.75;;;0.99;92.82
84413;BME280;74611;53.106;8.778;2024-01-06T03:58:40;100702.78;;;0.81;91.91
84413;BME280;74611;53.106;8.778;2024-01-06T04:01:15;100716.72;;;1.03;92.71
84413;BME280;74611;53.106;8.778;2024-01-06T04:03:41;100719.25;;;1.05;92.29
84413;BME280;74611;53.106;8.778;2024-01-06T04:06:06;100720.09;;;1.05;92.52
84413;BME280;74611;53.106;8.778;2024-01-06T04:08:32;100709.94;;;0.90;91.85
84413;BME280;74611;53.106;8.778;2024-01-06T04:10:58;100715.16;;;0.80;92.18
84413;BME280;74611;53.106;8.778;2024-01-06T04:13:23;100715.88;;;0.82;92.80
84413;BME280;74611;53.106;8.778;2024-01-06T04:15:50;100718.34;;;0.95;93.59
84413;BME280;74611;53.106;8.778;2024-01-06T04:18:16;100727.09;;;0.95;93.10
84413;BME280;74611;53.106;8.778;2024-01-06T04:20:41;100724.31;;;0.97;92.90
84413;BME280;74611;53.106;8.778;2024-01-06T04:23:07;100726.19;;;0.74;92.66
84413;BME280;74611;53.106;8.778;2024-01-06T04:25:33;100731.31;;;0.87;92.43
84413;BME280;74611;53.106;8.778;2024-01-06T04:27:58;100731.56;;;0.84;92.37
84413;BME280;74611;53.106;8.778;2024-01-06T04:30:24;100738.16;;;0.89;92.93
84413;BME280;74611;53.106;8.778;2024-01-06T04:32:51;100734.06;;;0.85;93.09
84413;BME280;74611;53.106;8.778;2024-01-06T04:35:16;100743.81;;;0.85;92.43
84413;BME280;74611;53.106;8.778;2024-01-06T04:37:42;100742.97;;;0.84;92.26
84413;BME280;74611;53.106;8.778;2024-01-06T04:40:08;100747.97;;;0.87;93.23
84413;BME280;74611;53.106;8.778;2024-01-06T04:42:34;100747.75;;;0.90;92.70
84413;BME280;74611;53.106;8.778;2024-01-06T04:45:00;100750.25;;;0.92;92.53
84413;BME280;74611;53.106;8.778;2024-01-06T04:47:25;100755.78;;;0.89;92.63
84413;BME280;74611;53.106;8.778;2024-01-06T04:49:51;100758.88;;;0.94;92.42
84413;BME280;74611;53.106;8.778;2024-01-06T04:52:17;100758.78;;;0.95;92.74
84413;BME280;74611;53.106;8.778;2024-01-06T04:54:43;100764.50;;;1.00;93.09
84413;BME280;74611;53.106;8.778;2024-01-06T04:57:08;100763.06;;;0.96;92.99
84413;BME280;74611;53.106;8.778;2024-01-06T04:59:34;100760.44;;;0.96;93.48
84413;BME280;74611;53.106;8.778;2024-01-06T05:02:02;100771.97;;;0.95;92.54
84413;BME280;74611;53.106;8.778;2024-01-06T05:04:28;100778.31;;;0.93;92.59
84413;BME280;74611;53.106;8.778;2024-01-06T05:06:56;100776.78;;;0.79;92.75
84413;BME280;74611;53.106;8.778;2024-01-06T05:09:21;100776.78;;;0.79;92.14
84413;BME280;74611;53.106;8.778;2024-01-06T05:11:47;100781.94;;;0.81;92.90
84413;BME280;74611;53.106;8.778;2024-01-06T05:14:12;100795.81;;;0.94;93.24
84413;BME280;74611;53.106;8.778;2024-01-06T05:16:38;100795.91;;;0.71;91.93
84413;BME280;74611;53.106;8.778;2024-01-06T05:19:03;100801.41;;;0.80;93.41
84413;BME280;74611;53.106;8.778;2024-01-06T05:21:38;100808.09;;;0.84;93.12
84413;BME280;74611;53.106;8.778;2024-01-06T05:24:05;100814.94;;;0.75;92.55
84413;BME280;74611;53.106;8.778;2024-01-06T05:26:30;100811.94;;;0.91;93.33
84413;BME280;74611;53.106;8.778;2024-01-06T05:28:56;100827.06;;;0.89;92.90
84413;BME280;74611;53.106;8.778;2024-01-06T05:31:22;100819.97;;;0.89;92.61
84413;BME280;74611;53.106;8.778;2024-01-06T05:33:47;100824.50;;;0.87;92.52
84413;BME280;74611;53.106;8.778;2024-01-06T05:36:13;100826.56;;;0.95;93.24
84413;BME280;74611;53.106;8.778;2024-01-06T05:38:38;100830.53;;;0.89;93.13
84413;BME280;74611;53.106;8.778;2024-01-06T05:41:04;100833.75;;;0.93;92.06
84413;BME280;74611;53.106;8.778;2024-01-06T05:43:29;100831.97;;;0.82;92.19
84413;BME280;74611;53.106;8.778;2024-01-06T05:45:55;100836.19;;;0.85;93.01
84413;BME280;74611;53.106;8.778;2024-01-06T05:48:20;100846.97;;;0.70;92.54
84413;BME280;74611;53.106;8.778;2024-01-06T05:50:46;100846.25;;;0.68;92.39
84413;BME280;74611;53.106;8.778;2024-01-06T05:53:12;100852.75;;;0.75;92.60
84413;BME280;74611;53.106;8.778;2024-01-06T05:55:39;100859.69;;;0.76;92.09
84413;BME280;74611;53.106;8.778;2024-01-06T05:58:04;100864.59;;;0.70;92.04
84413;BME280;74611;53.106;8.778;2024-01-06T06:00:30;100869.88;;;0.81;92.80
84413;BME280;74611;53.106;8.778;2024-01-06T06:02:57;100873.22;;;0.61;92.21
84413;BME280;74611;53.106;8.778;2024-01-06T06:05:23;100876.94;;;0.81;93.42
84413;BME280;74611;53.106;8.778;2024-01-06T06:07:48;100881.03;;;0.73;92.62
84413;BME280;74611;53.106;8.778;2024-01-06T06:10:14;100886.06;;;0.65;92.29
84413;BME280;74611;53.106;8.778;2024-01-06T06:12:41;100886.69;;;0.80;92.86
84413;BME280;74611;53.106;8.778;2024-01-06T06:15:07;100887.03;;;0.75;92.81
84413;BME280;74611;53.106;8.778;2024-01-06T06:17:33;100894.09;;;0.75;93.00
84413;BME280;74611;53.106;8.778;2024-01-06T06:19:59;100898.19;;;0.68;92.71
84413;BME280;74611;53.106;8.778;2024-01-06T06:22:26;100906.72;;;0.83;93.04
84413;BME280;74611;53.106;8.778;2024-01-06T06:24:55;100909.22;;;0.73;92.57
84413;BME280;74611;53.106;8.778;2024-01-06T06:27:21;100908.25;;;0.74;92.30
84413;BME280;74611;53.106;8.778;2024-01-06T06:29:46;100910.16;;;0.72;92.58
84413;BME280;74611;53.106;8.778;2024-01-06T06:32:12;100923.13;;;0.64;92.38
84413;BME280;74611;53.106;8.778;2024-01-06T06:34:38;100923.97;;;0.64;92.12
84413;BME280;74611;53.106;8.778;2024-01-06T06:37:03;100929.63;;;0.71;92.61
84413;BME280;74611;53.106;8.778;2024-01-06T06:39:29;100935.38;;;0.65;91.88
84413;BME280;74611;53.106;8.778;2024-01-06T06:41:56;100931.63;;;0.67;92.15
84413;BME280;74611;53.106;8.778;2024-01-06T06:44:22;100937.66;;;0.69;92.39
84413;BME280;74611;53.106;8.778;2024-01-06T06:46:48;100937.53;;;0.60;93.05
84413;BME280;74611;53.106;8.778;2024-01-06T06:49:14;100953.72;;;0.77;92.33
84413;BME280;74611;53.106;8.778;2024-01-06T06:51:40;100951.66;;;0.70;92.63
84413;BME280;74611;53.106;8.778;2024-01-06T06:54:12;100955.63;;;0.64;91.68
84413;BME280;74611;53.106;8.778;2024-01-06T06:56:38;100966.75;;;0.57;92.28
84413;BME280;74611;53.106;8.778;2024-01-06T06:59:03;100973.41;;;0.73;93.29
84413;BME280;74611;53.106;8.778;2024-01-06T07:01:29;100973.50;;;0.50;92.15
84413;BME280;74611;53.106;8.778;2024-01-06T07:03:56;100979.72;;;0.60;92.80
84413;BME280;74611;53.106;8.778;2024-01-06T07:06:21;100981.84;;;0.44;92.07
84413;BME280;74611;53.106;8.778;2024-01-06T07:08:47;100986.44;;;0.64;92.67
84413;BME280;74611;53.106;8.778;2024-01-06T07:11:12;100983.22;;;0.60;93.04
84413;BME280;74611;53.106;8.778;2024-01-06T07:13:44;100985.72;;;0.62;91.86
84413;BME280;74611;53.106;8.778;2024-01-06T07:16:09;100992.91;;;0.60;92.58
84413;BME280;74611;53.106;8.778;2024-01-06T07:21:05;100997.97;;;0.63;92.63
84413;BME280;74611;53.106;8.778;2024-01-06T07:23:37;100999.97;;;0.59;93.11
84413;BME280;74611;53.106;8.778;2024-01-06T07:26:05;101001.28;;;0.43;92.31
84413;BME280;74611;53.106;8.778;2024-01-06T07:28:33;101001.16;;;0.44;92.44
84413;BME280;74611;53.106;8.778;2024-01-06T07:31:00;101006.50;;;0.32;91.74
84413;BME280;74611;53.106;8.778;2024-01-06T07:33:25;101013.63;;;0.42;93.07
84413;BME280;74611;53.106;8.778;2024-01-06T07:35:51;101022.50;;;0.52;92.66
84413;BME280;74611;53.106;8.778;2024-01-06T07:38:17;101024.78;;;0.57;93.60
84413;BME280;74611;53.106;8.778;2024-01-06T07:40:42;101029.13;;;0.58;92.16
84413;BME280;74611;53.106;8.778;2024-01-06T07:43:09;101038.66;;;0.37;91.78
84413;BME280;74611;53.106;8.778;2024-01-06T07:45:35;101042.53;;;0.55;92.45
84413;BME280;74611;53.106;8.778;2024-01-06T07:48:00;101047.00;;;0.54;92.56
84413;BME280;74611;53.106;8.778;2024-01-06T07:50:26;101043.47;;;0.43;92.17
84413;BME280;74611;53.106;8.778;2024-01-06T07:52:53;101050.66;;;0.41;92.74
84413;BME280;74611;53.106;8.778;2024-01-06T07:55:19;101049.47;;;0.45;92.27
84413;BME280;74611;53.106;8.778;2024-01-06T07:57:45;101055.97;;;0.52;92.73
84413;BME280;74611;53.106;8.778;2024-01-06T08:00:11;101054.53;;;0.48;92.60
84413;BME280;74611;53.106;8.778;2024-01-06T08:02:40;101063.50;;;0.45;92.68
84413;BME280;74611;53.106;8.778;2024-01-06T08:05:06;101060.19;;;0.54;92.79
84413;BME280;74611;53.106;8.778;2024-01-06T08:07:32;101074.94;;;0.33;92.30
84413;BME280;74611;53.106;8.778;2024-01-06T08:09:58;101080.16;;;0.46;92.31
84413;BME280;74611;53.106;8.778;2024-01-06T08:12:23;101083.16;;;0.52;92.58
84413;BME280;74611;53.106;8.778;2024-01-06T08:14:49;101094.69;;;0.51;92.34
84413;BME280;74611;53.106;8.778;2024-01-06T08:17:15;101100.09;;;0.50;92.52
84413;BME280;74611;53.106;8.778;2024-01-06T08:19:40;101105.59;;;0.47;92.08
84413;BME280;74611;53.106;8.778;2024-01-06T08:22:07;101107.38;;;0.46;92.56
84413;BME280;74611;53.106;8.778;2024-01-06T08:24:32;101111.47;;;0.50;92.26
84413;BME280;74611;53.106;8.778;2024-01-06T08:26:58;101112.59;;;0.35;91.99
84413;BME280;74611;53.106;8.778;2024-01-06T08:29:24;101116.59;;;0.41;92.72
84413;BME280;74611;53.106;8.778;2024-01-06T08:31:50;101119.50;;;0.49;93.09
84413;BME280;74611;53.106;8.778;2024-01-06T08:34:17;101122.47;;;0.44;92.33
84413;BME280;74611;53.106;8.778;2024-01-06T08:36:44;101123.09;;;0.48;92.93
84413;BME280;74611;53.106;8.778;2024-01-06T08:39:09;101128.88;;;0.53;92.50
84413;BME280;74611;53.106;8.778;2024-01-06T08:41:35;101132.69;;;0.49;92.26
84413;BME280;74611;53.106;8.778;2024-01-06T08:44:00;101132.47;;;0.52;92.97
84413;BME280;74611;53.106;8.778;2024-01-06T08:46:26;101134.31;;;0.62;91.76
84413;BME280;74611;53.106;8.778;2024-01-06T08:48:52;101133.13;;;0.66;92.65
84413;BME280;74611;53.106;8.778;2024-01-06T08:51:17;101134.97;;;0.53;91.59
84413;BME280;74611;53.106;8.778;2024-01-06T08:53:43;101153.22;;;0.56;92.25
84413;BME280;74611;53.106;8.778;2024-01-06T08:56:09;101143.78;;;0.65;92.31
84413;BME280;74611;53.106;8.778;2024-01-06T08:58:34;101156.03;;;0.66;92.13
84413;BME280;74611;53.106;8.778;2024-01-06T09:01:00;101162.59;;;0.60;91.71
84413;BME280;74611;53.106;8.778;2024-01-06T09:03:25;101162.44;;;0.51;92.22
84413;BME280;74611;53.106;8.778;2024-01-06T09:05:52;101165.13;;;0.62;91.33
84413;BME280;74611;53.106;8.778;2024-01-06T09:08:18;101168.94;;;0.58;91.58
84413;BME280;74611;53.106;8.778;2024-01-06T09:10:43;101172.75;;;0.54;91.31
84413;BME280;74611;53.106;8.778;2024-01-06T09:13:09;101172.75;;;0.54;91.46
84413;BME280;74611;53.106;8.778;2024-01-06T09:15:35;101181.84;;;0.50;91.69
84413;BME280;74611;53.106;8.778;2024-01-06T09:18:01;101184.88;;;0.56;91.61
84413;BME280;74611;53.106;8.778;2024-01-06T09:20:28;101184.66;;;0.59;91.42
84413;BME280;74611;53.106;8.778;2024-01-06T09:22:53;101181.41;;;0.56;92.06
84413;BME280;74611;53.106;8.778;2024-01-06T09:25:19;101196.09;;;0.47;92.05
84413;BME280;74611;53.106;8.778;2024-01-06T09:27:44;101195.97;;;0.49;92.03
84413;BME280;74611;53.106;8.778;2024-01-06T09:30:10;101205.41;;;0.40;92.20
84413;BME280;74611;53.106;8.778;2024-01-06T09:32:36;101209.56;;;0.55;91.26
84413;BME280;74611;53.106;8.778;2024-01-06T09:35:02;101216.16;;;0.50;91.48
84413;BME280;74611;53.106;8.778;2024-01-06T09:37:29;101216.56;;;0.44;91.57
84413;BME280;74611;53.106;8.778;2024-01-06T09:39:54;101218.88;;;0.48;92.53
84413;BME280;74611;53.106;8.778;2024-01-06T09:42:20;101224.00;;;0.39;92.03
84413;BME280;74611;53.106;8.778;2024-01-06T09:44:49;101232.72;;;0.52;92.68
84413;BME280;74611;53.106;8.778;2024-01-06T09:47:16;101234.81;;;0.47;92.58
84413;BME280;74611;53.106;8.778;2024-01-06T09:49:52;101242.94;;;0.44;91.88
84413;BME280;74611;53.106;8.778;2024-01-06T09:52:23;101236.06;;;0.54;92.30
84413;BME280;74611;53.106;8.778;2024-01-06T09:54:53;101234.50;;;0.51;91.84
84413;BME280;74611;53.106;8.778;2024-01-06T09:57:20;101248.00;;;0.47;92.21
84413;BME280;74611;53.106;8.778;2024-01-06T09:59:46;101251.31;;;0.38;91.33
84413;BME280;74611;53.106;8.778;2024-01-06T10:02:16;101253.50;;;0.44;92.61
84413;BME280;74611;53.106;8.778;2024-01-06T10:04:43;101254.13;;;0.47;92.01
84413;BME280;74611;53.106;8.778;2024-01-06T10:07:13;101248.41;;;0.53;92.38
84413;BME280;74611;53.106;8.778;2024-01-06T10:09:40;101262.94;;;0.59;92.01
84413;BME280;74611;53.106;8.778;2024-01-06T10:12:07;101262.53;;;0.52;91.94
84413;BME280;74611;53.106;8.778;2024-01-06T10:14:33;101268.56;;;0.54;91.71
84413;BME280;74611;53.106;8.778;2024-01-06T10:16:58;101268.66;;;0.53;91.69
84413;BME280;74611;53.106;8.778;2024-01-06T10:19:24;101268.19;;;0.48;91.46
84413;BME280;74611;53.106;8.778;2024-01-06T10:21:49;101279.78;;;0.45;91.06
84413;BME280;74611;53.106;8.778;2024-01-06T10:24:18;101276.59;;;0.53;92.21
84413;BME280;74611;53.106;8.778;2024-01-06T10:26:45;101275.72;;;0.52;91.22
84413;BME280;74611;53.106;8.778;2024-01-06T10:29:10;101285.13;;;0.56;92.08
84413;BME280;74611;53.106;8.778;2024-01-06T10:31:36;101286.72;;;0.46;91.04
84413;BME280;74611;53.106;8.778;2024-01-06T10:34:02;101288.03;;;0.41;91.57
84413;BME280;74611;53.106;8.778;2024-01-06T10:36:28;101292.97;;;0.45;92.04
84413;BME280;74611;53.106;8.778;2024-01-06T10:38:54;101297.84;;;0.39;91.74
84413;BME280;74611;53.106;8.778;2024-01-06T10:41:21;101295.50;;;0.47;92.12
84413;BME280;74611;53.106;8.778;2024-01-06T10:43:49;101300.25;;;0.42;91.41
84413;BME280;74611;53.106;8.778;2024-01-06T10:46:18;101299.72;;;0.49;91.62
84413;BME280;74611;53.106;8.778;2024-01-06T10:48:44;101293.88;;;0.57;91.67
84413;BME280;74611;53.106;8.778;2024-01-06T10:51:12;101311.09;;;0.50;90.58
84413;BME280;74611;53.106;8.778;2024-01-06T10:53:40;101309.84;;;0.43;91.63
84413;BME280;74611;53.106;8.778;2024-01-06T10:56:07;101314.47;;;0.39;90.70
84413;BME280;74611;53.106;8.778;2024-01-06T10:58:36;101313.19;;;0.57;91.60
84413;BME280;74611;53.106;8.778;2024-01-06T11:01:08;101315.66;;;0.48;91.28
84413;BME280;74611;53.106;8.778;2024-01-06T11:03:36;101313.91;;;0.59;91.99
84413;BME280;74611;53.106;8.778;2024-01-06T11:06:02;101323.03;;;0.43;90.61
84413;BME280;74611;53.106;8.778;2024-01-06T11:08:28;101320.50;;;0.54;91.54
84413;BME280;74611;53.106;8.778;2024-01-06T11:10:55;101326.38;;;0.57;92.10
84413;BME280;74611;53.106;8.778;2024-01-06T11:13:23;101324.81;;;0.42;90.65
84413;BME280;74611;53.106;8.778;2024-01-06T11:15:51;101328.44;;;0.41;91.30
84413;BME280;74611;53.106;8.778;2024-01-06T11:18:37;101320.41;;;0.43;91.48
84413;BME280;74611;53.106;8.778;2024-01-06T11:21:18;101328.47;;;0.52;92.01
84413;BME280;74611;53.106;8.778;2024-01-06T11:26:32;101328.63;;;0.38;91.48
84413;BME280;74611;53.106;8.778;2024-01-06T11:29:00;101338.88;;;0.43;91.83
84413;BME280;74611;53.106;8.778;2024-01-06T11:31:30;101326.69;;;0.53;92.23
84413;BME280;74611;53.106;8.778;2024-01-06T11:33:56;101331.47;;;0.48;91.98
84413;BME280;74611;53.106;8.778;2024-01-06T11:36:22;101337.41;;;0.39;91.39
84413;BME280;74611;53.106;8.778;2024-01-06T11:38:48;101340.22;;;0.48;91.00
84413;BME280;74611;53.106;8.778;2024-01-06T11:41:50;101335.94;;;0.35;90.16
84413;BME280;74611;53.106;8.778;2024-01-06T11:44:23;101338.03;;;0.30;90.81
84413;BME280;74611;53.106;8.778;2024-01-06T11:46:48;101339.38;;;0.35;91.53
84413;BME280;74611;53.106;8.778;2024-01-06T11:49:15;101333.50;;;0.32;91.30
84413;BME280;74611;53.106;8.778;2024-01-06T11:51:41;101338.13;;;0.41;91.12
84413;BME280;74611;53.106;8.778;2024-01-06T11:54:08;101342.47;;;0.29;91.75
84413;BME280;74611;53.106;8.778;2024-01-06T11:56:34;101349.53;;;0.41;92.58
84413;BME280;74611;53.106;8.778;2024-01-06T11:58:59;101348.25;;;0.47;91.60
84413;BME280;74611;53.106;8.778;2024-01-06T12:01:25;101345.53;;;0.23;91.30
84413;BME280;74611;53.106;8.778;2024-01-06T12:03:54;101348.69;;;0.41;90.54
84413;BME280;74611;53.106;8.778;2024-01-06T12:06:20;101351.72;;;0.47;91.43
84413;BME280;74611;53.106;8.778;2024-01-06T12:08:49;101359.25;;;0.28;91.03
84413;BME280;74611;53.106;8.778;2024-01-06T12:11:17;101359.00;;;0.31;91.08
84413;BME280;74611;53.106;8.778;2024-01-06T12:13:44;101364.81;;;0.36;90.36
84413;BME280;74611;53.106;8.778;2024-01-06T12:16:10;101362.50;;;0.32;90.96
84413;BME280;74611;53.106;8.778;2024-01-06T12:18:35;101364.50;;;0.41;91.71
84413;BME280;74611;53.106;8.778;2024-01-06T12:21:01;101368.94;;;0.28;90.72
84413;BME280;74611;53.106;8.778;2024-01-06T12:23:27;101366.59;;;0.36;91.56
84413;BME280;74611;53.106;8.778;2024-01-06T12:25:54;101363.53;;;0.42;92.26
84413;BME280;74611;53.106;8.778;2024-01-06T12:28:19;101361.03;;;0.28;90.61
84413;BME280;74611;53.106;8.778;2024-01-06T12:30:45;101365.03;;;0.33;91.46
84413;BME280;74611;53.106;8.778;2024-01-06T12:33:11;101369.44;;;0.33;91.17
84413;BME280;74611;53.106;8.778;2024-01-06T12:35:37;101364.50;;;0.41;92.02
84413;BME280;74611;53.106;8.778;2024-01-06T12:38:05;101363.66;;;0.40;91.77
84413;BME280;74611;53.106;8.778;2024-01-06T12:40:32;101369.69;;;0.30;91.31
84413;BME280;74611;53.106;8.778;2024-01-06T12:42:58;101369.25;;;0.23;91.31
84413;BME280;74611;53.106;8.778;2024-01-06T12:45:23;101369.69;;;0.30;91.24
84413;BME280;74611;53.106;8.778;2024-01-06T12:47:48;101381.38;;;0.38;91.93
84413;BME280;74611;53.106;8.778;2024-01-06T12:50:14;101371.34;;;0.31;90.85
84413;BME280;74611;53.106;8.778;2024-01-06T12:52:40;101371.78;;;0.25;90.92
84413;BME280;74611;53.106;8.778;2024-01-06T12:55:07;101384.75;;;0.28;91.27
84413;BME280;74611;53.106;8.778;2024-01-06T12:57:32;101376.63;;;0.43;92.42
84413;BME280;74611;53.106;8.778;2024-01-06T12:59:59;101373.56;;;0.49;92.65
84413;BME280;74611;53.106;8.778;2024-01-06T13:02:24;101374.41;;;0.37;92.05